Terminal Aerodrome Forecast
Issued by NWS

Home | Current Version | Previous Version | Text Only | Print | Product List | Glossary On
Versions: 1 2 3 4 5 6 7 8 9 10 11 12 13 14 15 16 17 18 19 20 21 22 23 24 25
000
FTUS45 KLKN 121700
TAFWMC
TAF
KWMC 121720Z 1218/1318 02009KT P6SM SCT120
     FM122100 32008KT P6SM SCT120
      TEMPO 1222/1302 BKN090
     FM130300 03012KT P6SM SKC=

USA.gov is the U.S. government's official web portal to all federal, state and local government web resources and services.